Peconic, New York
Current Conditions -  °F | °C
As of 7:17 PM on Sunday 21 Dec 2014 (Local Time) from KFOK Reporting Station
Overcast Overcast  
Wind Chill: 33°   Ceiling: 1000
Heat Index: 38°   Visibility: 10mi
Dew Point: 35°   Wind: 6mph
Humidity: 89%   Direction: 350°N
Pressure: 30.32"   Gusts: NA
Location:  41.04°N, 72.46°W
Report Text: KFOK 220017Z 35005KT 10SM OVC010 03/02 A3032 RMK AO2 CIG 008V013 T00330017
Loading
Personal Weather Stations






























Interactive Weather Map New forecast layout! Learn more

10-Day Weather Forecast

Advertisements
Track Severe Weather on mobile